createdAt,value
2019-05-22T00:02:21.187Z,18.69
2019-05-22T00:07:23.595Z,18.60
2019-05-22T00:12:27.935Z,18.51
2019-05-22T00:17:31.824Z,18.45
2019-05-22T00:22:37.062Z,18.38
2019-05-22T00:27:40.004Z,18.40
2019-05-22T00:32:42.995Z,18.36
2019-05-22T00:37:46.962Z,18.22
2019-05-22T00:43:03.330Z,18.04
2019-05-22T00:47:57.221Z,17.89
2019-05-22T00:53:01.695Z,17.82
2019-05-22T00:58:11.177Z,17.91
2019-05-22T01:03:17.163Z,17.84
2019-05-22T01:08:21.261Z,17.84
2019-05-22T01:13:26.531Z,17.89
2019-05-22T01:18:31.840Z,17.78
2019-05-22T01:23:36.390Z,17.76
2019-05-22T01:28:39.087Z,17.64
2019-05-22T01:33:58.871Z,17.60
2019-05-22T01:39:29.047Z,17.50
2019-05-22T01:44:33.825Z,17.49
2019-05-22T01:49:47.224Z,17.43
2019-05-22T01:54:52.008Z,17.39
2019-05-22T01:59:56.549Z,17.30
2019-05-22T02:05:01.455Z,17.19
2019-05-22T02:10:07.103Z,17.20
2019-05-22T02:15:11.606Z,17.19
2019-05-22T02:20:15.650Z,17.15
2019-05-22T02:25:20.375Z,17.13
2019-05-22T02:30:24.269Z,17.16
2019-05-22T02:35:26.922Z,17.14
2019-05-22T02:40:34.474Z,17.07
2019-05-22T02:45:37.089Z,17.08
2019-05-22T02:50:39.834Z,17.03
2019-05-22T02:55:42.757Z,17.06
2019-05-22T03:00:57.501Z,16.98
2019-05-22T03:06:03.634Z,16.85
2019-05-22T03:11:05.929Z,16.72
2019-05-22T03:16:09.151Z,16.66
2019-05-22T03:21:12.022Z,16.63
2019-05-22T03:26:18.773Z,16.53
2019-05-22T03:31:22.709Z,16.53
2019-05-22T03:36:27.089Z,16.57
2019-05-22T03:41:29.518Z,16.60
2019-05-22T03:46:43.621Z,16.45
2019-05-22T03:51:51.864Z,16.46
2019-05-22T03:56:54.922Z,16.34
2019-05-22T04:02:00.099Z,16.22
2019-05-22T04:07:05.357Z,16.17
2019-05-22T04:12:10.117Z,16.14
2019-05-22T04:17:14.368Z,16.13
2019-05-22T04:22:17.527Z,16.06
2019-05-22T04:27:21.948Z,16.10
2019-05-22T04:32:36.625Z,15.98
2019-05-22T04:37:41.400Z,15.89
2019-05-22T04:42:44.188Z,15.78
2019-05-22T04:47:56.643Z,15.67
2019-05-22T04:53:00.656Z,15.64
2019-05-22T04:58:08.007Z,15.65
2019-05-22T05:03:10.735Z,15.72
2019-05-22T05:08:14.836Z,15.60
2019-05-22T05:13:19.056Z,15.49
2019-05-22T05:18:22.196Z,15.55
2019-05-22T05:23:25.738Z,15.56
2019-05-22T05:28:28.984Z,15.52
2019-05-22T05:33:42.911Z,15.56
2019-05-22T05:38:46.393Z,15.45
2019-05-22T05:43:49.496Z,15.28
2019-05-22T05:48:51.682Z,15.35
2019-05-22T05:54:03.193Z,15.31
2019-05-22T05:59:07.619Z,15.33
2019-05-22T06:04:11.880Z,15.19
2019-05-22T06:09:19.628Z,15.17
2019-05-22T06:14:24.999Z,15.12
2019-05-22T06:19:31.132Z,15.02
2019-05-22T06:24:59.608Z,14.99
2019-05-22T06:30:13.118Z,14.90
2019-05-22T06:35:16.691Z,14.93
2019-05-22T06:40:20.666Z,14.84
2019-05-22T06:45:23.195Z,14.78
2019-05-22T06:50:26.461Z,14.80
2019-05-22T06:55:29.023Z,14.80
2019-05-22T07:00:31.825Z,14.74
2019-05-22T07:05:34.368Z,14.85
2019-05-22T07:10:38.607Z,14.87
2019-05-22T07:15:45.772Z,14.79
2019-05-22T07:20:49.864Z,14.82
2019-05-22T07:25:54.370Z,14.82
2019-05-22T07:30:57.665Z,14.81
2019-05-22T07:36:17.288Z,14.84
2019-05-22T07:41:05.324Z,14.87
2019-05-22T07:46:08.068Z,14.87
2019-05-22T07:51:11.868Z,14.85
2019-05-22T07:56:14.865Z,14.84
2019-05-22T08:01:18.810Z,14.72
2019-05-22T08:06:22.301Z,14.77
2019-05-22T08:11:25.628Z,14.83
2019-05-22T08:16:29.154Z,14.82
2019-05-22T08:21:32.483Z,14.82
2019-05-22T08:26:51.634Z,14.80
2019-05-22T08:31:40.888Z,14.73
2019-05-22T08:36:48.082Z,14.68
2019-05-22T08:41:52.810Z,14.65
2019-05-22T08:46:56.291Z,14.63
2019-05-22T08:51:59.790Z,14.66
2019-05-22T08:57:03.730Z,14.72
2019-05-22T09:02:08.385Z,14.86
2019-05-22T09:07:11.005Z,14.98
2019-05-22T09:12:16.080Z,15.10
2019-05-22T09:17:20.637Z,15.07
2019-05-22T09:22:37.830Z,15.10
2019-05-22T09:27:28.517Z,15.23
2019-05-22T09:32:31.755Z,15.18
2019-05-22T09:37:34.259Z,15.18
2019-05-22T09:42:37.590Z,15.20
2019-05-22T09:47:40.221Z,15.18
2019-05-22T09:52:56.809Z,15.23
2019-05-22T09:57:52.106Z,15.17
2019-05-22T10:02:54.433Z,15.19
2019-05-22T10:08:01.625Z,15.13
2019-05-22T10:13:05.411Z,15.14
2019-05-22T10:18:08.330Z,15.15
2019-05-22T10:23:16.111Z,15.13
2019-05-22T10:28:16.320Z,15.13
2019-05-22T10:33:19.158Z,15.13
2019-05-22T10:38:22.672Z,15.12
2019-05-22T10:43:26.172Z,15.05
2019-05-22T10:48:28.948Z,15.06
2019-05-22T10:53:34.208Z,15.03
2019-05-22T10:58:36.577Z,15.06
2019-05-22T11:03:39.398Z,15.08
2019-05-22T11:08:43.437Z,15.13
2019-05-22T11:14:00.782Z,15.18
2019-05-22T11:18:51.953Z,15.19
2019-05-22T11:23:54.378Z,15.08
2019-05-22T11:28:56.900Z,15.16
2019-05-22T11:33:59.329Z,15.24
2019-05-22T11:39:01.948Z,15.32
2019-05-22T11:44:06.181Z,15.37
2019-05-22T11:49:09.338Z,15.40
2019-05-22T11:54:13.069Z,15.37
2019-05-22T11:59:15.622Z,15.29
2019-05-22T12:04:19.345Z,15.22
2019-05-22T12:09:22.395Z,15.15
2019-05-22T12:14:25.455Z,15.15
2019-05-22T12:19:30.251Z,15.15
2019-05-22T12:24:37.410Z,15.16
2019-05-22T12:29:38.043Z,15.03
2019-05-22T12:34:41.149Z,15.04
2019-05-22T12:39:44.351Z,15.07
2019-05-22T12:44:47.149Z,15.00
2019-05-22T12:49:50.339Z,15.00
2019-05-22T12:54:54.089Z,15.00
2019-05-22T13:00:01.849Z,14.97
2019-05-22T13:05:02.361Z,15.03
2019-05-22T13:10:06.109Z,15.08
2019-05-22T13:15:10.810Z,14.98
2019-05-22T13:20:19.190Z,15.04
2019-05-22T13:25:33.187Z,15.08
2019-05-22T13:30:38.660Z,15.11
2019-05-22T13:35:42.707Z,15.08
2019-05-22T13:40:46.492Z,15.06
2019-05-22T13:45:50.525Z,14.97
2019-05-22T13:50:55.552Z,14.94
2019-05-22T13:55:58.399Z,14.96
2019-05-22T14:01:01.271Z,14.86
2019-05-22T14:06:04.240Z,14.78
2019-05-22T14:11:08.031Z,14.74
2019-05-22T14:16:11.116Z,14.72
2019-05-22T14:21:13.831Z,14.71
2019-05-22T14:26:16.337Z,14.69
2019-05-22T14:31:19.272Z,14.71
2019-05-22T14:36:22.980Z,14.77
2019-05-22T14:41:25.321Z,14.80
2019-05-22T14:46:29.436Z,14.79
2019-05-22T14:51:32.471Z,14.82
2019-05-22T14:56:36.160Z,14.79
2019-05-22T15:01:39.089Z,14.72
2019-05-22T15:06:42.678Z,14.78
2019-05-22T15:11:45.055Z,14.80
2019-05-22T15:16:47.582Z,14.71
2019-05-22T15:21:50.212Z,14.71
2019-05-22T15:26:53.052Z,14.73
2019-05-22T15:31:56.061Z,14.68
2019-05-22T15:36:58.980Z,14.65
2019-05-22T15:42:04.843Z,14.59
2019-05-22T15:47:07.959Z,14.61
2019-05-22T15:52:14.507Z,14.56
2019-05-22T15:57:19.376Z,14.62
2019-05-22T16:02:23.648Z,14.63
2019-05-22T16:07:28.012Z,14.62
2019-05-22T16:12:31.448Z,14.63
2019-05-22T16:17:41.371Z,14.64
2019-05-22T16:22:42.561Z,14.73
2019-05-22T16:27:46.979Z,14.76
2019-05-22T16:32:51.304Z,14.72
2019-05-22T16:37:57.516Z,14.64
2019-05-22T16:43:00.053Z,14.61
2019-05-22T16:48:04.893Z,14.54
2019-05-22T16:53:10.106Z,14.51
2019-05-22T16:58:14.317Z,14.49
2019-05-22T17:03:18.287Z,14.54
2019-05-22T17:08:21.771Z,14.52
2019-05-22T17:13:29.965Z,14.51
2019-05-22T17:18:47.267Z,14.56
2019-05-22T17:23:37.896Z,14.57
2019-05-22T17:28:40.586Z,14.60
2019-05-22T17:33:43.193Z,14.59
2019-05-22T17:38:46.707Z,14.58
2019-05-22T17:43:49.195Z,14.64
2019-05-22T17:48:53.009Z,14.66
2019-05-22T17:53:55.264Z,14.67
2019-05-22T17:58:57.683Z,14.68
2019-05-22T18:04:01.424Z,14.68
2019-05-22T18:09:06.976Z,14.67
2019-05-22T18:14:10.126Z,14.63
2019-05-22T18:19:12.531Z,14.57
2019-05-22T18:24:15.574Z,14.58
2019-05-22T18:29:18.679Z,14.59
2019-05-22T18:34:21.220Z,14.60
2019-05-22T18:39:25.041Z,14.55
2019-05-22T18:44:28.129Z,14.52
2019-05-22T18:49:31.309Z,14.49
2019-05-22T18:54:33.519Z,14.44
2019-05-22T18:59:35.741Z,14.39
2019-05-22T19:04:38.401Z,14.37
2019-05-22T19:09:41.537Z,14.37
2019-05-22T19:14:44.092Z,14.37
2019-05-22T19:19:47.986Z,14.35
2019-05-22T19:24:51.216Z,14.36
2019-05-22T19:29:54.231Z,14.36
2019-05-22T19:34:56.883Z,14.33
2019-05-22T19:39:59.969Z,14.33
2019-05-22T19:45:05.231Z,14.30
2019-05-22T19:50:22.877Z,14.30
2019-05-22T19:55:18.648Z,14.34
2019-05-22T20:00:21.562Z,14.30
2019-05-22T20:05:24.932Z,14.29
2019-05-22T20:10:27.390Z,14.29
2019-05-22T20:15:29.984Z,14.29
2019-05-22T20:20:32.645Z,14.26
2019-05-22T20:25:35.154Z,14.25
2019-05-22T20:30:37.649Z,14.23
2019-05-22T20:35:40.955Z,14.22
2019-05-22T20:40:44.258Z,14.17
2019-05-22T20:45:47.569Z,14.16
2019-05-22T20:50:50.399Z,14.14
2019-05-22T20:55:54.126Z,14.11
2019-05-22T21:00:57.755Z,14.08
2019-05-22T21:06:02.530Z,14.06
2019-05-22T21:11:07.953Z,14.07
2019-05-22T21:16:12.301Z,14.05
2019-05-22T21:21:14.951Z,14.05
2019-05-22T21:26:18.289Z,14.04
2019-05-22T21:31:21.127Z,14.04
2019-05-22T21:36:24.015Z,13.99
2019-05-22T21:41:26.720Z,13.97
2019-05-22T21:46:29.980Z,13.95
2019-05-22T21:51:33.946Z,13.96
2019-05-22T21:56:37.460Z,13.95
2019-05-22T22:01:54.922Z,13.92
2019-05-22T22:06:59.257Z,13.87
2019-05-22T22:12:03.979Z,13.85
2019-05-22T22:17:09.509Z,13.85
2019-05-22T22:22:19.467Z,13.83
2019-05-22T22:27:22.130Z,13.82
2019-05-22T22:32:26.698Z,13.81
2019-05-22T22:37:30.555Z,13.73
2019-05-22T22:42:36.838Z,13.71
2019-05-22T22:47:42.481Z,13.70
2019-05-22T22:52:45.673Z,13.68
2019-05-22T22:57:51.160Z,13.59
2019-05-22T23:02:56.061Z,13.61
2019-05-22T23:07:59.065Z,13.60
2019-05-22T23:13:04.585Z,13.60
2019-05-22T23:18:08.080Z,13.58
2019-05-22T23:23:09.311Z,13.57
2019-05-22T23:28:12.321Z,13.53
2019-05-22T23:33:15.106Z,13.51
2019-05-22T23:38:17.722Z,13.48
2019-05-22T23:43:20.920Z,13.44
2019-05-22T23:48:26.995Z,13.39
2019-05-22T23:53:32.195Z,13.34
2019-05-22T23:58:49.916Z,13.28
